createdAt,value
2022-08-22T00:02:51.492Z,9.8
2022-08-22T00:02:51.655Z,6.4
2022-08-22T04:35:50.773Z,11.1
2022-08-22T04:38:05.205Z,11
2022-08-22T04:40:19.664Z,7.3
2022-08-22T04:42:34.104Z,11.3
2022-08-22T04:44:48.454Z,13.1
2022-08-22T04:47:03.013Z,7.8
2022-08-22T04:49:17.426Z,9.7
2022-08-22T04:51:31.877Z,11.1
2022-08-22T04:53:46.244Z,9.8
2022-08-22T04:56:05.354Z,9.8
2022-08-22T04:58:18.052Z,5.7
2022-08-22T05:00:32.399Z,8.8
2022-08-22T05:02:48.313Z,13.3
2022-08-22T05:05:03.148Z,7.3
2022-08-22T05:07:17.558Z,9.7
2022-08-22T05:09:31.995Z,10.2
2022-08-22T05:11:46.354Z,7.3
2022-08-22T05:14:00.750Z,8.8
2022-08-22T05:16:15.089Z,8.8
2022-08-22T05:18:30.465Z,9
2022-08-22T05:20:45.872Z,9.5
2022-08-22T05:23:01.228Z,10.2
2022-08-22T05:25:16.581Z,7.9
2022-08-22T05:27:31.091Z,7.2
2022-08-22T05:29:45.417Z,8.6
2022-08-22T05:31:59.800Z,11.3
2022-08-22T05:34:14.191Z,12
2022-08-22T05:36:28.546Z,8.2
2022-08-22T05:38:42.954Z,11.4
2022-08-22T05:40:57.370Z,8.5
2022-08-22T05:43:12.829Z,5.9
2022-08-22T05:45:27.174Z,6.8
2022-08-22T05:47:41.558Z,7.8
2022-08-22T05:49:55.929Z,8.4
2022-08-22T05:52:10.328Z,7.4
2022-08-22T05:54:31.742Z,9.6
2022-08-22T05:56:41.096Z,7.1
2022-08-22T05:58:55.500Z,8.5
2022-08-22T06:01:09.911Z,9.6
2022-08-22T06:03:24.446Z,7.6
2022-08-22T06:05:38.777Z,10.6
2022-08-22T06:07:53.266Z,15.8
2022-08-22T06:10:07.631Z,8.7
2022-08-22T06:12:23.000Z,8.1
2022-08-22T06:14:38.368Z,10.1
2022-08-22T06:16:55.728Z,7.6
2022-08-22T06:19:11.328Z,14.2
2022-08-22T06:21:27.466Z,10.2
2022-08-22T06:23:43.454Z,8.7
2022-08-22T06:25:57.881Z,7.2
2022-08-22T06:28:12.317Z,10.8
2022-08-22T06:30:26.673Z,11.2
2022-08-22T06:32:47.089Z,15
2022-08-22T06:34:58.406Z,12.4
2022-08-22T06:37:12.868Z,12.2
2022-08-22T06:39:27.205Z,11.2
2022-08-22T06:41:41.570Z,14.2
2022-08-22T06:43:55.950Z,13.6
2022-08-22T06:46:10.293Z,11.1
2022-08-22T06:48:25.703Z,14.7
2022-08-22T06:50:39.043Z,16.1
2022-08-22T06:52:53.434Z,12.9
2022-08-22T06:55:08.791Z,12
2022-08-22T06:57:23.127Z,11.2
2022-08-22T06:59:37.506Z,11.8
2022-08-22T07:01:51.973Z,11.5
2022-08-22T07:04:06.261Z,12.9
2022-08-22T07:06:20.628Z,10.7
2022-08-22T07:08:38.946Z,9.7
2022-08-22T07:10:52.299Z,15.1
2022-08-22T07:13:06.740Z,10.4
2022-08-22T07:15:21.115Z,10.9
2022-08-22T07:17:40.182Z,13.3
2022-08-22T07:19:52.793Z,10.2
2022-08-22T07:22:07.189Z,11.5
2022-08-22T07:24:21.609Z,12.6
2022-08-22T07:26:35.911Z,12.4
2022-08-22T07:28:57.999Z,11.2
2022-08-22T07:31:07.576Z,11.7
2022-08-22T07:33:26.195Z,12.4
2022-08-22T07:35:39.313Z,12.6
2022-08-22T07:37:53.749Z,10
2022-08-22T07:40:08.104Z,13.2
2022-08-22T07:42:22.447Z,11.4
2022-08-22T07:44:38.750Z,10.8
2022-08-22T07:46:53.129Z,10.3
2022-08-22T07:49:10.193Z,14.2
2022-08-22T07:51:23.845Z,9
2022-08-22T07:53:38.231Z,10.7
2022-08-22T07:55:52.612Z,12.4
2022-08-22T07:58:06.972Z,9
2022-08-22T08:00:21.364Z,11.9
2022-08-22T08:02:35.708Z,11.9
2022-08-22T08:04:50.166Z,15.1
2022-08-22T08:07:04.535Z,13.7
2022-08-22T08:09:18.991Z,10.5
2022-08-22T08:11:34.352Z,13.4
2022-08-22T08:13:48.752Z,12.8
2022-08-22T08:16:03.267Z,11.2
2022-08-22T08:18:17.740Z,9.8
2022-08-22T08:20:32.116Z,9.8
2022-08-22T08:22:46.688Z,19
2022-08-22T08:25:01.141Z,14.4
2022-08-22T08:27:16.634Z,11.6
2022-08-22T08:29:31.068Z,10.3
2022-08-22T08:31:45.414Z,15.5
2022-08-22T08:33:59.773Z,10.1
2022-08-22T08:36:14.211Z,11.9
2022-08-22T08:38:28.537Z,13
2022-08-22T08:40:43.884Z,11.3
2022-08-22T08:43:00.262Z,14.6
2022-08-22T08:45:14.639Z,12.7
2022-08-22T08:47:28.980Z,11.2
2022-08-22T08:49:43.329Z,11
2022-08-22T08:51:57.708Z,10.4
2022-08-22T08:54:12.057Z,9.3
2022-08-22T08:56:26.529Z,10.2
2022-08-22T08:58:40.908Z,9.4
2022-08-22T09:00:56.963Z,8.8
2022-08-22T09:05:30.022Z,9.1
2022-08-22T09:07:44.894Z,11.8
2022-08-22T09:10:00.238Z,9.7
2022-08-22T09:12:14.622Z,9.7
2022-08-22T09:14:29.073Z,7.7
2022-08-22T09:16:45.136Z,10.5
2022-08-22T09:19:00.936Z,9.5
2022-08-22T09:21:16.238Z,9.5
2022-08-22T09:23:32.608Z,7.8
2022-08-22T09:25:48.011Z,9.4
2022-08-22T09:28:03.373Z,10.4
2022-08-22T09:30:17.737Z,11.8
2022-08-22T09:32:34.236Z,12.8
2022-08-22T09:34:48.589Z,25.799999
2022-08-22T09:37:02.994Z,15.2
2022-08-22T09:39:17.429Z,9
2022-08-22T09:41:33.838Z,9.7
2022-08-22T09:43:49.229Z,10.6
2022-08-22T09:46:03.540Z,7.1
2022-08-22T09:48:17.952Z,14
2022-08-22T09:50:32.464Z,7
2022-08-22T09:52:46.845Z,7.9
2022-08-22T09:55:01.240Z,5.6
2022-08-22T09:57:15.605Z,5.4
2022-08-22T09:59:31.033Z,11.2
2022-08-22T10:01:46.402Z,8.5
2022-08-22T10:04:01.746Z,5.7
2022-08-22T10:06:17.134Z,7.4
2022-08-22T10:08:31.481Z,8.5
2022-08-22T10:10:45.854Z,8.6
2022-08-22T10:13:00.363Z,9.3
2022-08-22T10:15:15.595Z,8.6
2022-08-22T10:17:32.016Z,7.1
2022-08-22T10:19:47.384Z,10.7
2022-08-22T10:22:02.717Z,8.1
2022-08-22T10:24:24.624Z,6.8
2022-08-22T10:26:38.702Z,6.1
2022-08-22T10:28:51.914Z,8
2022-08-22T10:31:07.325Z,6.2
2022-08-22T10:33:22.784Z,7.1
2022-08-22T10:35:40.081Z,5.9
2022-08-22T10:37:54.679Z,8.2
2022-08-22T10:40:10.019Z,6.6
2022-08-22T10:42:24.420Z,5.4
2022-08-22T10:44:41.742Z,7.7
2022-08-22T10:46:56.147Z,8.5
2022-08-22T10:49:12.752Z,6
2022-08-22T10:51:28.940Z,6.1
2022-08-22T10:53:43.411Z,6.5
2022-08-22T10:55:57.855Z,5.7
2022-08-22T10:58:12.272Z,7
2022-08-22T11:00:26.613Z,9.1
2022-08-22T11:02:42.134Z,7.8
2022-08-22T11:04:57.376Z,5.7
2022-08-22T11:07:12.175Z,7.4
2022-08-22T11:09:27.990Z,5.9
2022-08-22T11:11:43.011Z,9.8
2022-08-22T11:13:57.362Z,6.4
2022-08-22T11:16:12.937Z,7.7
2022-08-22T11:18:27.289Z,6.6
2022-08-22T11:20:43.755Z,5.8
2022-08-22T11:22:59.200Z,8
2022-08-22T11:25:13.551Z,8.1
2022-08-22T11:27:34.456Z,7.5
2022-08-22T11:29:45.257Z,7.4
2022-08-22T11:32:05.747Z,7.4
2022-08-22T11:34:20.494Z,5.4
2022-08-22T11:36:34.357Z,7.5
2022-08-22T11:38:48.725Z,4.9
2022-08-22T11:41:04.148Z,6.5
2022-08-22T11:43:19.491Z,5.5
2022-08-22T11:45:35.899Z,9.3
2022-08-22T11:47:52.364Z,8.2
2022-08-22T11:50:13.726Z,6.9
2022-08-22T11:52:24.106Z,6.4
2022-08-22T11:54:42.163Z,7.3
2022-08-22T11:56:56.751Z,11.6
2022-08-22T11:59:11.162Z,7
2022-08-22T12:01:27.571Z,7.4
2022-08-22T12:03:44.308Z,9.5
2022-08-22T12:05:58.754Z,6.3
2022-08-22T12:08:13.151Z,8.4
2022-08-22T12:10:28.499Z,6
2022-08-22T12:12:42.925Z,10.3
2022-08-22T12:14:57.386Z,9.3
2022-08-22T12:17:12.933Z,9.4
2022-08-22T12:19:32.645Z,12.5
2022-08-22T12:21:45.599Z,7.3
2022-08-22T12:24:06.070Z,7.1
2022-08-22T12:26:22.166Z,6.6
2022-08-22T12:28:34.964Z,6.4
2022-08-22T12:30:51.714Z,16.700001
2022-08-22T12:33:06.761Z,10.2
2022-08-22T12:35:27.219Z,7.9
2022-08-22T12:37:52.411Z,7.7
2022-08-22T12:39:56.904Z,9.4
2022-08-22T12:42:12.212Z,5.3
2022-08-22T12:44:26.601Z,6.9
2022-08-22T12:46:46.508Z,8.1
2022-08-22T12:48:58.291Z,5.2
2022-08-22T12:51:17.392Z,8.2
2022-08-22T12:53:31.005Z,7.3
2022-08-22T12:55:45.421Z,4.3
2022-08-22T12:57:59.751Z,5.8
2022-08-22T13:00:14.123Z,6.6
2022-08-22T13:02:30.576Z,7.4
2022-08-22T13:04:44.933Z,7.8
2022-08-22T13:06:59.380Z,6.1
2022-08-22T13:09:13.805Z,6.6
2022-08-22T13:11:29.169Z,5.8
2022-08-22T13:13:43.639Z,7.9
2022-08-22T13:16:00.961Z,8.4
2022-08-22T13:18:28.618Z,5.6
2022-08-22T13:20:33.701Z,5.7
2022-08-22T13:22:49.083Z,7.5
2022-08-22T13:25:05.380Z,10.5
2022-08-22T13:27:21.717Z,7.2
2022-08-22T13:29:39.308Z,6.9
2022-08-22T13:31:52.485Z,9.9
2022-08-22T13:34:07.936Z,7.1
2022-08-22T13:36:24.291Z,8.9
2022-08-22T13:38:46.429Z,8.4
2022-08-22T13:40:56.960Z,7.4
2022-08-22T13:43:11.410Z,7.7
2022-08-22T13:45:25.877Z,7.9
2022-08-22T13:47:40.254Z,3.6
2022-08-22T13:49:55.714Z,4.9
2022-08-22T13:52:14.588Z,6.4
2022-08-22T13:54:28.535Z,7.3
2022-08-22T13:56:44.187Z,5.1
2022-08-22T13:59:00.269Z,6.6
2022-08-22T14:01:14.711Z,5
2022-08-22T14:03:29.981Z,3.6
2022-08-22T14:05:44.321Z,2.9
2022-08-22T14:07:59.696Z,11.4
2022-08-22T14:10:16.070Z,12.5
2022-08-22T14:12:33.607Z,6.5
2022-08-22T14:14:47.717Z,5.6
2022-08-22T14:17:03.215Z,7
2022-08-22T14:19:18.562Z,6.5
2022-08-22T14:21:40.443Z,4.6
2022-08-22T14:23:50.370Z,6.1
2022-08-22T14:26:04.766Z,6.5
2022-08-22T14:28:20.134Z,8.8
2022-08-22T14:30:34.512Z,5.8
2022-08-22T14:32:48.875Z,5.5
2022-08-22T14:35:04.267Z,5.5
2022-08-22T14:37:19.662Z,8
2022-08-22T14:39:35.006Z,5.9
2022-08-22T14:41:52.242Z,5.1
2022-08-22T14:44:07.503Z,6.2
2022-08-22T14:46:23.903Z,6.3
2022-08-22T14:48:40.765Z,6.8
2022-08-22T14:50:55.589Z,5.8
2022-08-22T14:53:11.994Z,8.1
2022-08-22T14:55:26.374Z,6.9
2022-08-22T14:57:41.731Z,6.9
2022-08-22T14:59:56.097Z,7.9
2022-08-22T15:02:10.580Z,5.2
2022-08-22T15:04:25.832Z,6.5
2022-08-22T15:06:43.903Z,3.7
2022-08-22T15:08:58.549Z,5.7
2022-08-22T15:11:12.924Z,9.7
2022-08-22T15:13:29.594Z,5.4
2022-08-22T15:15:49.897Z,6.4
2022-08-22T15:18:00.963Z,6.4
2022-08-22T15:20:16.314Z,6.1
2022-08-22T15:22:31.678Z,7.5
2022-08-22T15:24:46.295Z,9.3
2022-08-22T15:27:00.694Z,6.6
2022-08-22T15:29:16.994Z,3.9
2022-08-22T15:31:32.381Z,4.5
2022-08-22T15:33:46.763Z,4.8
2022-08-22T15:36:02.137Z,6.2
2022-08-22T15:38:16.492Z,4.6
2022-08-22T15:40:31.939Z,7.2
2022-08-22T15:42:47.237Z,7.6
2022-08-22T15:45:01.608Z,4.3
2022-08-22T15:47:23.899Z,6.3
2022-08-22T15:49:34.262Z,7.7
2022-08-22T15:51:50.262Z,5.4
2022-08-22T15:54:16.472Z,5.6
2022-08-22T15:56:21.313Z,6
2022-08-22T15:58:35.715Z,7.4
2022-08-22T16:00:50.075Z,6.6
2022-08-22T16:03:04.449Z,5.6
2022-08-22T16:05:18.813Z,5.9
2022-08-22T16:07:33.281Z,6.4
2022-08-22T16:09:47.626Z,7.6
2022-08-22T16:12:03.041Z,3.7
2022-08-22T16:14:17.411Z,5.3
2022-08-22T16:16:33.832Z,5.3
2022-08-22T16:18:48.440Z,10.4
2022-08-22T16:21:02.914Z,6.1
2022-08-22T16:23:17.465Z,11.9
2022-08-22T16:25:33.085Z,35
2022-08-22T16:27:47.731Z,91.400002
2022-08-22T16:30:02.192Z,143.19999
2022-08-22T16:32:16.464Z,111.19999
2022-08-22T16:34:30.905Z,243.3
2022-08-22T16:36:45.370Z,349.89999
2022-08-22T16:38:59.763Z,691.5
2022-08-22T16:41:14.251Z,127.3
2022-08-22T16:43:29.634Z,614.20001
2022-08-22T16:45:45.040Z,313.5
2022-08-22T16:47:59.494Z,1016.2
2022-08-22T16:50:13.892Z,756.59997
2022-08-22T16:52:28.335Z,77.199997
2022-08-22T16:54:43.688Z,67.599998
2022-08-22T16:56:58.154Z,71.400002
2022-08-22T16:59:23.262Z,26.1
2022-08-22T17:01:30.687Z,28.5
2022-08-22T17:03:45.006Z,6.2
2022-08-22T17:05:59.687Z,13.4
2022-08-22T17:08:14.075Z,13
2022-08-22T17:10:29.314Z,11.7
2022-08-22T17:12:43.925Z,5.7
2022-08-22T17:14:58.262Z,4.2
2022-08-22T17:17:12.604Z,5.8
2022-08-22T17:19:27.029Z,13.7
2022-08-22T17:21:44.308Z,10.8
2022-08-22T17:23:59.039Z,20.9
2022-08-22T17:26:13.429Z,5
2022-08-22T17:28:33.608Z,8
2022-08-22T17:30:46.131Z,7.9
2022-08-22T17:33:00.521Z,21.700001
2022-08-22T17:35:15.163Z,6.9
2022-08-22T17:37:29.534Z,8.4
2022-08-22T17:39:44.114Z,8.4
2022-08-22T17:41:58.428Z,7.4
2022-08-22T17:44:12.828Z,15.2
2022-08-22T17:46:27.158Z,5.1
2022-08-22T17:48:41.628Z,17.200001
2022-08-22T17:50:56.087Z,7.7
2022-08-22T17:53:10.525Z,16.799999
2022-08-22T17:55:25.917Z,7.1
2022-08-22T17:57:40.311Z,8.4
2022-08-22T17:59:54.919Z,6.8
2022-08-22T18:02:10.203Z,10
2022-08-22T18:04:24.778Z,5.8
2022-08-22T18:06:40.113Z,5.8
2022-08-22T18:11:11.989Z,9.9
2022-08-22T18:13:26.350Z,4.7
2022-08-22T18:15:40.733Z,6.9
2022-08-22T18:17:55.546Z,7
2022-08-22T18:20:09.793Z,6
2022-08-22T18:22:24.189Z,5.3
2022-08-22T18:24:38.571Z,6.5
2022-08-22T18:26:53.060Z,6.6
2022-08-22T18:29:07.505Z,4.3
2022-08-22T18:31:22.045Z,4.4
2022-08-22T18:33:37.429Z,5.8
2022-08-22T18:35:53.751Z,5.1
2022-08-22T18:38:10.621Z,5.7
2022-08-22T18:40:26.013Z,7
2022-08-22T18:42:40.333Z,2.9
2022-08-22T18:44:54.713Z,5.9
2022-08-22T18:47:09.119Z,3
2022-08-22T18:49:23.559Z,7.2
2022-08-22T18:51:38.997Z,5
2022-08-22T18:53:53.278Z,6.6
2022-08-22T18:56:07.689Z,6.2
2022-08-22T18:58:22.036Z,6.4
2022-08-22T19:00:36.413Z,4.5
2022-08-22T19:02:55.304Z,9.1
2022-08-22T19:05:08.317Z,6.5
2022-08-22T19:07:22.693Z,6.9
2022-08-22T19:09:37.087Z,6.9
2022-08-22T19:11:51.516Z,4.7
2022-08-22T19:14:05.982Z,6.6
2022-08-22T19:16:20.320Z,7.4
2022-08-22T19:18:34.704Z,9
2022-08-22T19:20:49.068Z,7.9
2022-08-22T19:23:03.576Z,8.5
2022-08-22T19:25:17.834Z,9.1
2022-08-22T19:27:32.231Z,10.9
2022-08-22T19:29:46.659Z,6.2
2022-08-22T19:32:01.039Z,8
2022-08-22T19:34:16.442Z,6.5
2022-08-22T19:36:30.841Z,7.5
2022-08-22T19:38:45.208Z,10.1
2022-08-22T19:40:59.642Z,9
2022-08-22T19:43:14.053Z,11.6
2022-08-22T19:45:28.579Z,13.1
2022-08-22T19:47:42.968Z,8
2022-08-22T19:49:58.310Z,4.5
2022-08-22T19:52:13.688Z,4.3
2022-08-22T19:54:28.144Z,5.5
2022-08-22T19:56:42.605Z,7.7
2022-08-22T19:58:57.090Z,6
2022-08-22T20:01:11.802Z,5.6
2022-08-22T20:03:26.141Z,5
2022-08-22T20:05:40.706Z,7.8
2022-08-22T20:07:57.122Z,6.1
2022-08-22T20:10:11.538Z,8.3
2022-08-22T20:12:25.905Z,4.4
2022-08-22T20:14:40.337Z,4.5
2022-08-22T20:16:54.713Z,6.2
2022-08-22T20:19:10.896Z,7.9
2022-08-22T20:21:25.958Z,6.1
2022-08-22T20:23:41.353Z,12.8
2022-08-22T20:25:55.916Z,4.6
2022-08-22T20:28:10.318Z,5.3
2022-08-22T20:30:25.728Z,7.8
2022-08-22T20:32:40.163Z,3.1
2022-08-22T20:34:54.579Z,5.9
2022-08-22T20:37:29.205Z,7.4
2022-08-22T20:39:26.437Z,7
2022-08-22T20:41:40.830Z,4.6
2022-08-22T20:43:55.316Z,5.7
2022-08-22T20:46:12.477Z,4.2
2022-08-22T20:48:26.379Z,6.5
2022-08-22T20:50:40.839Z,5.9
2022-08-22T20:52:55.232Z,4.2
2022-08-22T20:55:09.656Z,5.7
2022-08-22T20:57:24.079Z,7.5
2022-08-22T20:59:39.515Z,5
2022-08-22T21:01:53.948Z,5.8
2022-08-22T21:04:08.425Z,6
2022-08-22T21:06:23.872Z,4.5
2022-08-22T21:08:38.307Z,5.2
2022-08-22T21:10:52.781Z,6.8
2022-08-22T21:13:07.142Z,4.7
2022-08-22T21:15:21.586Z,5.6
2022-08-22T21:17:39.165Z,5
2022-08-22T21:19:52.446Z,4.2
2022-08-22T21:22:08.965Z,5
2022-08-22T21:24:23.325Z,4.8
2022-08-22T21:26:37.822Z,9
2022-08-22T21:28:52.162Z,7.8
